Time;durP1;ratioP1;P1;durP2;ratioP2;P2;SDS_P1;SDS_P2;PMS_P1;PMS_P2;Temp;Humidity;BMP_temperature;BMP_pressure;BME280_temperature;BME280_humidity;BME280_pressure;Samples;Min_cycle;Max_cycle;Signal;HPM_P1;HPM_P2
2022/04/06 04:03:42;;;;;;;7.62;5.57;;;;;;;7.16;93.61;99856.75;6528598;27;20359;-87
2022/04/06 04:06:45;;;;;;;7.60;5.75;;;;;;;7.19;92.59;99867.12;6578775;27;34008;-87
2022/04/06 04:09:50;;;;;;;8.75;6.03;;;;;;;7.19;93.32;99872.50;6579461;27;33500;-86
2022/04/06 04:12:52;;;;;;;7.15;5.78;;;;;;;7.26;92.25;99868.16;6579318;27;33931;-87
2022/04/06 04:15:55;;;;;;;7.32;5.68;;;;;;;7.38;91.33;99871.31;6580061;27;34599;-87
2022/04/06 04:18:58;;;;;;;9.80;5.82;;;;;;;7.41;91.20;99865.63;6579197;27;35114;-87
2022/04/06 04:22:02;;;;;;;10.32;5.80;;;;;;;7.45;91.21;99866.09;6579216;27;34249;-87
2022/04/06 04:25:06;;;;;;;7.40;5.10;;;;;;;7.50;91.19;99864.59;6579530;27;34015;-90
2022/04/06 04:28:09;;;;;;;5.87;4.53;;;;;;;7.52;92.17;99866.25;6579275;27;34410;-91
2022/04/06 04:31:12;;;;;;;6.75;4.60;;;;;;;7.62;90.58;99873.09;6578853;27;34187;-90
2022/04/06 04:34:15;;;;;;;12.02;5.03;;;;;;;7.72;89.51;99868.41;6579194;27;35448;-90
2022/04/06 04:37:18;;;;;;;7.37;4.97;;;;;;;7.82;90.10;99865.53;6579201;27;35299;-86
2022/04/06 04:40:21;;;;;;;8.60;4.60;;;;;;;7.92;89.39;99868.81;6585365;27;35052;-86
2022/04/06 04:43:25;;;;;;;5.90;5.00;;;;;;;7.97;90.55;99865.63;6580345;27;35122;-86
2022/04/06 04:46:28;;;;;;;5.47;4.15;;;;;;;8.02;90.36;99876.69;6578931;27;33689;-86
2022/04/06 04:49:31;;;;;;;6.55;4.32;;;;;;;8.12;88.03;99876.47;6579579;27;34108;-86
2022/04/06 04:52:34;;;;;;;7.28;4.32;;;;;;;8.10;90.06;99878.47;6579541;27;34992;-86
2022/04/06 04:55:37;;;;;;;6.22;3.97;;;;;;;8.12;90.08;99882.66;6579669;27;34092;-86
2022/04/06 04:58:39;;;;;;;7.72;4.62;;;;;;;8.23;89.67;99881.44;6580939;27;34671;-86
2022/04/06 05:01:42;;;;;;;7.30;5.22;;;;;;;8.33;88.57;99886.56;6585009;27;34871;-85
2022/04/06 05:04:45;;;;;;;5.72;4.28;;;;;;;8.48;85.84;99890.25;6584291;27;33961;-86
2022/04/06 05:07:48;;;;;;;7.78;4.78;;;;;;;8.67;83.86;99893.47;6579168;27;34160;-86
2022/04/06 05:10:53;;;;;;;9.82;3.97;;;;;;;8.75;83.70;99896.13;6581474;27;34744;-85
2022/04/06 05:13:56;;;;;;;5.30;3.90;;;;;;;8.90;82.40;99893.50;6594572;26;33803;-86
2022/04/06 05:17:00;;;;;;;5.68;4.40;;;;;;;9.19;80.15;99903.50;6590617;27;35363;-86
2022/04/06 05:20:05;;;;;;;7.75;4.72;;;;;;;9.29;79.31;99904.91;6597760;26;35079;-86
2022/04/06 05:23:08;;;;;;;5.87;4.30;;;;;;;9.37;80.28;99906.69;6589349;27;33757;-85
2022/04/06 05:26:11;;;;;;;8.73;5.18;;;;;;;9.38;79.64;99910.22;6591066;27;33814;-86
2022/04/06 05:29:14;;;;;;;6.47;4.87;;;;;;;9.51;79.37;99910.44;6587723;27;33582;-86
2022/04/06 05:32:16;;;;;;;7.68;4.85;;;;;;;9.58;78.05;99907.84;6584305;27;35255;-86
2022/04/06 05:35:20;;;;;;;9.45;5.15;;;;;;;9.64;77.58;99910.63;6597814;26;34058;-86
2022/04/06 05:38:22;;;;;;;6.65;4.97;;;;;;;9.68;76.41;99909.28;6588929;27;35409;-86
2022/04/06 05:41:25;;;;;;;12.70;5.32;;;;;;;9.68;76.98;99921.84;6580348;27;35517;-86
2022/04/06 05:44:28;;;;;;;8.57;5.28;;;;;;;9.79;76.70;99920.56;6576121;27;193359;-86
2022/04/06 05:47:31;;;;;;;9.35;5.62;;;;;;;9.89;76.37;99921.97;6580342;27;34538;-86
2022/04/06 05:50:34;;;;;;;8.38;5.50;;;;;;;10.09;75.19;99921.41;6580048;27;34926;-86
2022/04/06 05:53:36;;;;;;;11.15;6.32;;;;;;;10.35;73.74;99924.47;6579616;27;34317;-86
2022/04/06 05:56:39;;;;;;;8.20;5.20;;;;;;;10.57;72.48;99927.25;6580558;27;33960;-86
2022/04/06 05:59:42;;;;;;;12.73;6.03;;;;;;;10.57;72.37;99928.09;6579862;27;34094;-86
2022/04/06 06:02:45;;;;;;;9.15;5.18;;;;;;;10.58;72.81;99929.75;6582987;27;34113;-85
2022/04/06 06:05:48;;;;;;;8.07;5.78;;;;;;;10.77;72.72;99930.19;6580989;27;34713;-86
2022/04/06 06:08:53;;;;;;;8.18;5.30;;;;;;;10.86;71.87;99926.34;6578993;27;34016;-86
2022/04/06 06:11:58;;;;;;;9.52;5.70;;;;;;;11.11;70.51;99930.34;6578764;27;34033;-86
2022/04/06 06:15:01;;;;;;;10.23;5.25;;;;;;;11.27;70.33;99928.41;6578570;27;33652;-86
2022/04/06 06:18:04;;;;;;;9.77;5.35;;;;;;;11.42;69.22;99931.84;6578439;27;35448;-86
2022/04/06 06:21:07;;;;;;;9.50;5.82;;;;;;;11.26;69.52;99940.19;6578457;27;34772;-86
2022/04/06 06:24:10;;;;;;;8.75;5.53;;;;;;;11.30;69.34;99941.50;6578251;27;33846;-86
2022/04/06 06:27:17;;;;;;;10.15;5.15;;;;;;;11.29;69.10;99935.28;6581145;27;34312;-86
2022/04/06 06:30:21;;;;;;;9.23;5.43;;;;;;;11.57;69.59;99923.69;6580336;27;33800;-86
2022/04/06 06:33:28;;;;;;;10.18;5.68;;;;;;;11.89;66.99;99930.38;6577914;27;35509;-87
2022/04/06 06:36:32;;;;;;;9.25;5.53;;;;;;;12.36;63.02;99925.25;6577174;27;34369;-87
2022/04/06 06:39:35;;;;;;;8.50;4.80;;;;;;;12.58;62.34;99924.09;6578181;27;34176;-89
2022/04/06 06:42:37;;;;;;;8.90;4.65;;;;;;;12.76;61.12;99925.41;6578761;27;34316;-90
2022/04/06 06:45:40;;;;;;;9.35;4.95;;;;;;;12.71;60.97;99934.09;6578457;27;35348;-91
2022/04/06 06:48:44;;;;;;;9.07;5.75;;;;;;;12.76;62.13;99934.34;6580621;27;34244;-90
2022/04/06 06:51:46;;;;;;;9.80;6.50;;;;;;;12.89;61.00;99937.06;6582380;27;34146;-88
2022/04/06 06:54:49;;;;;;;10.13;5.95;;;;;;;12.53;62.48;99934.66;6579167;27;33823;-87
2022/04/06 06:57:52;;;;;;;13.43;7.37;;;;;;;12.35;63.60;99927.09;6579268;27;34608;-87
2022/04/06 07:00:55;;;;;;;12.52;7.03;;;;;;;12.36;63.03;99931.47;6578176;27;34664;-87
2022/04/06 07:03:58;;;;;;;13.68;7.18;;;;;;;12.46;62.48;99923.84;6579132;27;34611;-87
2022/04/06 07:07:01;;;;;;;13.50;7.35;;;;;;;12.50;62.59;99928.84;6579424;27;34061;-87
2022/04/06 07:10:06;;;;;;;16.65;9.02;;;;;;;12.44;62.95;99928.59;6579731;27;34592;-87
2022/04/06 07:13:11;;;;;;;19.67;8.85;;;;;;;12.48;62.75;99937.94;6579820;27;34089;-87
2022/04/06 07:16:15;;;;;;;20.37;9.75;;;;;;;12.42;63.17;99927.97;6581227;27;33756;-87
2022/04/06 07:19:18;;;;;;;22.55;11.00;;;;;;;12.56;62.60;99941.53;6579798;27;35224;-87
2022/04/06 07:22:21;;;;;;;22.98;12.10;;;;;;;12.79;61.90;99936.62;6579604;27;33578;-87
2022/04/06 07:25:24;;;;;;;22.10;11.25;;;;;;;13.05;60.62;99945.84;6581862;27;34494;-87
2022/04/06 07:28:27;;;;;;;22.90;10.30;;;;;;;13.08;60.19;99940.84;6581612;27;34059;-87
2022/04/06 07:31:30;;;;;;;18.90;10.27;;;;;;;13.05;60.62;99943.97;6579770;27;33945;-87
2022/04/06 07:34:32;;;;;;;19.92;9.07;;;;;;;13.33;58.65;99941.13;6578313;27;33751;-87
2022/04/06 07:37:41;;;;;;;18.95;11.25;;;;;;;13.18;58.70;99947.72;6576928;27;34876;-87
2022/04/06 07:40:44;;;;;;;19.90;9.30;;;;;;;13.24;59.17;99950.44;6578886;27;35080;-87
2022/04/06 07:43:47;;;;;;;19.52;9.73;;;;;;;13.37;58.22;99944.25;6577869;27;34145;-87
2022/04/06 07:46:51;;;;;;;17.52;9.25;;;;;;;13.58;57.19;99935.94;6576286;27;34497;-87
2022/04/06 07:49:53;;;;;;;19.60;9.85;;;;;;;13.89;56.41;99936.31;6579039;27;34237;-86
2022/04/06 07:52:56;;;;;;;15.20;8.05;;;;;;;14.08;55.82;99940.87;6577318;27;33945;-87
2022/04/06 07:55:59;;;;;;;14.02;8.00;;;;;;;14.25;53.56;99935.84;6576734;27;34775;-87
2022/04/06 07:59:02;;;;;;;13.98;7.70;;;;;;;14.37;54.11;99944.97;6579252;27;33817;-86
2022/04/06 08:02:07;;;;;;;16.10;7.35;;;;;;;14.39;52.74;99940.19;6578216;27;34012;-87
2022/04/06 08:05:11;;;;;;;12.77;6.95;;;;;;;14.52;52.32;99933.91;6578417;27;34832;-87
2022/04/06 08:08:14;;;;;;;13.85;7.10;;;;;;;14.46;52.07;99943.69;6579393;27;33878;-86
2022/04/06 08:11:17;;;;;;;10.77;6.25;;;;;;;14.53;52.89;99943.69;6581796;27;33702;-86
2022/04/06 08:14:20;;;;;;;17.05;6.57;;;;;;;14.45;52.48;99941.19;6582361;27;34049;-87
2022/04/06 08:17:24;;;;;;;11.57;6.50;;;;;;;14.44;52.47;99940.34;6578149;27;35155;-86
2022/04/06 08:20:27;;;;;;;11.60;6.80;;;;;;;14.38;52.28;99933.09;6588671;26;34536;-87
2022/04/06 08:23:30;;;;;;;11.07;6.82;;;;;;;14.53;52.85;99938.28;6577307;27;33918;-88
2022/04/06 08:26:34;;;;;;;15.00;7.22;;;;;;;14.67;52.54;99939.87;6582010;27;34002;-87
2022/04/06 08:29:37;;;;;;;10.75;7.37;;;;;;;14.88;51.75;99940.63;6592001;27;33934;-86
2022/04/06 08:32:39;;;;;;;16.80;8.63;;;;;;;15.01;53.22;99948.69;6588768;27;35173;-87
2022/04/06 08:35:43;;;;;;;13.25;7.95;;;;;;;14.96;51.52;99943.91;6580050;27;34709;-86
2022/04/06 08:38:46;;;;;;;19.58;8.75;;;;;;;14.95;53.38;99942.25;6579280;27;34451;-86
2022/04/06 08:41:49;;;;;;;11.63;8.02;;;;;;;15.22;51.36;99933.13;6579595;27;34076;-87
2022/04/06 08:44:52;;;;;;;13.90;7.93;;;;;;;15.18;51.20;99936.28;6579536;27;33816;-87
2022/04/06 08:47:59;;;;;;;13.60;9.15;;;;;;;15.20;51.42;99931.44;6579260;27;34023;-87
2022/04/06 08:51:04;;;;;;;23.33;9.20;;;;;;;15.31;51.24;99934.50;6579661;27;34179;-87
2022/04/06 08:54:08;;;;;;;11.65;7.62;;;;;;;15.35;50.82;99933.84;6578603;27;34064;-91
2022/04/06 08:57:12;;;;;;;14.98;7.90;;;;;;;15.38;50.48;99932.56;6579333;27;34284;-91
2022/04/06 09:00:18;;;;;;;14.23;8.25;;;;;;;15.48;50.14;99932.94;6579847;27;35591;-91
2022/04/06 09:03:22;;;;;;;11.63;7.65;;;;;;;15.75;50.44;99935.44;6579137;27;33608;-87
2022/04/06 09:06:29;;;;;;;10.43;6.90;;;;;;;15.84;49.41;99936.81;6578912;27;34041;-87
2022/04/06 09:09:35;;;;;;;12.75;7.20;;;;;;;15.87;48.36;99930.94;6589599;27;33955;-87
2022/04/06 09:12:38;;;;;;;12.05;6.50;;;;;;;16.00;49.04;99935.41;6596590;27;35466;-88
2022/04/06 09:15:42;;;;;;;10.88;6.93;;;;;;;16.36;47.37;99937.31;6593080;26;35091;-87
2022/04/06 09:18:48;;;;;;;10.57;7.05;;;;;;;16.16;47.04;99931.28;6579269;27;34340;-87
2022/04/06 09:21:57;;;;;;;7.65;4.50;;;;;;;16.37;47.07;99932.72;6579103;27;34679;-87
2022/04/06 09:25:00;;;;;;;9.35;4.82;;;;;;;16.31;46.31;99921.69;6582621;27;33582;-87
2022/04/06 09:28:10;;;;;;;10.57;7.03;;;;;;;16.05;47.46;99917.37;6577132;27;34772;-87
2022/04/06 09:31:15;;;;;;;9.90;6.70;;;;;;;16.07;49.30;99917.16;6575720;27;34862;-87
2022/04/06 09:34:23;;;;;;;12.98;7.60;;;;;;;16.18;46.97;99919.16;6576473;27;33754;-87
2022/04/06 09:37:31;;;;;;;11.50;6.90;;;;;;;15.94;47.77;99915.44;6576992;27;33611;-87
2022/04/06 09:40:37;;;;;;;9.30;5.62;;;;;;;16.18;50.31;99902.84;6577373;27;34621;-87
2022/04/06 09:43:41;;;;;;;9.13;6.57;;;;;;;16.34;47.22;99893.25;6577865;27;33862;-87
2022/04/06 09:50:09;;;;;;;11.10;7.07;;;;;;;16.91;45.51;99880.19;6577918;27;33629;-87
2022/04/06 09:53:15;;;;;;;8.88;6.43;;;;;;;17.14;46.31;99884.03;6578974;27;34835;-87
2022/04/06 09:56:20;;;;;;;16.08;6.90;;;;;;;17.11;45.89;99869.03;6578642;27;33988;-87
2022/04/06 09:59:23;;;;;;;12.18;6.97;;;;;;;17.15;45.06;99872.91;6580238;27;34869;-87
2022/04/06 10:02:27;;;;;;;11.27;7.10;;;;;;;17.24;45.48;99867.97;6586833;27;34906;-87
2022/04/06 10:05:31;;;;;;;11.07;7.12;;;;;;;17.38;45.97;99869.41;6599429;27;35168;-87
2022/04/06 10:08:34;;;;;;;11.27;6.97;;;;;;;17.38;45.34;99855.81;6601165;27;34405;-87
2022/04/06 10:11:39;;;;;;;11.60;7.30;;;;;;;17.55;44.90;99850.50;6587746;27;35096;-87
2022/04/06 10:14:42;;;;;;;10.63;7.60;;;;;;;17.92;45.88;99847.53;6579624;27;33998;-87
2022/04/06 10:17:44;;;;;;;11.45;7.03;;;;;;;18.06;43.93;99845.38;6580050;27;34799;-87
2022/04/06 10:20:48;;;;;;;11.20;7.70;;;;;;;18.16;43.33;99840.13;6579137;27;35303;-88
2022/04/06 10:24:46;;;;;;;12.13;7.57;;;;;;;18.20;47.71;99838.59;6578869;27;33579;-87
2022/04/06 10:27:53;;;;;;;11.68;7.15;;;;;;;18.06;44.36;99842.66;6483072;27;33614;-86
2022/04/06 10:31:11;;;;;;;11.68;7.28;;;;;;;18.34;42.89;99834.53;6579870;27;34621;-87
2022/04/06 10:34:22;;;;;;;10.90;7.62;;;;;;;18.61;45.35;99830.41;6577534;27;32735;-87
2022/04/06 10:37:25;;;;;;;10.07;7.37;;;;;;;18.63;41.67;99823.59;6577708;27;33752;-87
2022/04/06 10:40:52;;;;;;;10.32;7.45;;;;;;;18.62;42.70;99819.25;6585980;27;33713;-86
2022/04/06 10:43:57;;;;;;;15.32;7.68;;;;;;;18.73;41.65;99818.37;6568442;27;34470;-86
2022/04/06 10:47:08;;;;;;;13.25;7.68;;;;;;;19.20;42.00;99814.53;6599495;27;34229;-85
2022/04/06 10:50:11;;;;;;;10.15;7.43;;;;;;;19.93;39.36;99820.81;6583455;27;35318;-85
2022/04/06 10:53:27;;;;;;;9.55;7.32;;;;;;;20.01;39.00;99798.53;6577693;27;33889;-85
2022/04/06 10:56:55;;;;;;;10.20;6.90;;;;;;;20.23;40.35;99790.31;6579463;27;33918;-85
2022/04/06 11:00:16;;;;;;;9.60;7.30;;;;;;;20.37;39.42;99790.75;6584929;27;34090;-86
2022/04/06 11:03:20;;;;;;;11.63;7.18;;;;;;;20.73;39.95;99778.28;6588477;27;35025;-87
2022/04/06 11:06:44;;;;;;;13.73;6.65;;;;;;;20.96;37.63;99779.84;6591865;27;34068;-87
2022/04/06 11:13:13;;;;;;;8.75;5.90;;;;;;;21.47;35.93;99776.72;6584041;27;34250;-86
2022/04/06 11:16:39;;;;;;;8.88;6.12;;;;;;;21.88;33.82;99774.16;6594275;27;34102;-87
2022/04/06 11:19:52;;;;;;;7.50;5.85;;;;;;;22.41;33.51;99767.53;6586556;27;35428;-86
2022/04/06 11:22:57;;;;;;;8.88;5.10;;;;;;;22.64;34.12;99763.47;6579899;27;33904;-86
2022/04/06 11:26:00;;;;;;;11.00;5.90;;;;;;;23.08;35.73;99756.63;6593248;27;33904;-87
2022/04/06 11:29:03;;;;;;;6.90;4.57;;;;;;;23.21;32.00;99750.56;6585943;27;35302;-86
2022/04/06 11:32:06;;;;;;;7.37;5.20;;;;;;;23.63;30.84;99757.59;6578214;27;33451;-87
2022/04/06 11:35:11;;;;;;;8.02;5.15;;;;;;;23.94;30.05;99741.87;6577518;27;33909;-87
2022/04/06 11:38:13;;;;;;;10.38;5.07;;;;;;;24.09;30.70;99731.91;6577520;27;34084;-86
2022/04/06 11:41:18;;;;;;;7.28;5.50;;;;;;;24.40;28.95;99736.13;6594587;27;34071;-87
2022/04/06 11:44:24;;;;;;;8.00;5.62;;;;;;;23.65;28.73;99738.91;6594508;27;35525;-87
2022/04/06 11:47:32;;;;;;;8.73;5.40;;;;;;;22.90;29.75;99721.47;6581057;27;33893;-88
2022/04/06 11:50:38;;;;;;;7.95;5.10;;;;;;;24.00;30.53;99717.91;6585000;27;34894;-88
2022/04/06 11:53:41;;;;;;;7.68;5.45;;;;;;;25.75;26.14;99712.59;6580802;27;33962;-86
2022/04/06 11:56:48;;;;;;;9.48;6.40;;;;;;;26.91;25.96;99697.38;6578678;27;33785;-87
2022/04/06 11:59:57;;;;;;;9.98;5.95;;;;;;;27.56;24.82;99696.47;6581139;27;34718;-86
2022/04/06 12:03:00;;;;;;;9.18;5.82;;;;;;;28.54;24.71;99693.22;6580685;27;33865;-86
2022/04/06 12:06:05;;;;;;;9.30;5.95;;;;;;;29.89;22.23;99695.69;6587490;27;33873;-86
2022/04/06 12:09:08;;;;;;;9.02;6.40;;;;;;;30.03;23.12;99687.25;6581357;27;34332;-86
2022/04/06 12:12:13;;;;;;;10.25;6.78;;;;;;;30.21;22.40;99682.56;6589859;27;34890;-87
2022/04/06 12:15:16;;;;;;;9.02;7.20;;;;;;;31.14;21.09;99668.03;6597854;27;34448;-86
2022/04/06 12:18:19;;;;;;;10.45;6.95;;;;;;;30.70;22.58;99661.75;6596027;27;34427;-86
2022/04/06 12:21:27;;;;;;;10.68;8.02;;;;;;;31.22;20.98;99654.44;6590624;27;34410;-86
2022/04/06 12:24:38;;;;;;;9.68;8.18;;;;;;;30.16;21.52;99643.81;6581724;27;34018;-86
2022/04/06 12:27:41;;;;;;;11.68;7.80;;;;;;;31.00;21.45;99642.41;6582334;27;34474;-86
2022/04/06 12:30:53;;;;;;;11.38;8.70;;;;;;;30.97;21.19;99640.28;6584472;27;33737;-86
2022/04/06 12:33:56;;;;;;;10.32;8.15;;;;;;;31.90;20.69;99632.16;6580638;27;34136;-86
2022/04/06 12:37:29;;;;;;;12.15;8.77;;;;;;;32.95;18.82;99627.25;6579873;27;34875;-86
2022/04/06 12:40:23;;;;;;;12.23;8.55;;;;;;;32.68;18.62;99623.16;6579583;27;35386;-86
2022/04/06 12:43:26;;;;;;;12.85;8.15;;;;;;;32.59;20.08;99611.28;6580392;27;34240;-86
2022/04/06 12:46:42;;;;;;;12.48;8.30;;;;;;;32.03;19.25;99615.22;6580342;27;34257;-86
2022/04/06 12:49:44;;;;;;;11.80;8.07;;;;;;;31.62;19.61;99608.44;6578549;27;35437;-86
2022/04/06 12:53:07;;;;;;;14.68;9.02;;;;;;;31.92;19.92;99602.03;6578693;27;34138;-86
2022/04/06 12:56:11;;;;;;;10.25;8.13;;;;;;;32.02;19.81;99588.50;6580834;27;33953;-86
2022/04/06 12:59:14;;;;;;;9.80;8.80;;;;;;;32.16;18.96;99585.44;6581896;27;34310;-90
2022/04/06 13:02:29;;;;;;;13.23;7.85;;;;;;;31.87;18.83;99579.94;6589240;27;34983;-91
2022/04/06 13:05:32;;;;;;;9.25;7.72;;;;;;;32.59;18.23;99577.84;6588390;27;33775;-87
2022/04/06 13:08:35;;;;;;;10.85;8.25;;;;;;;32.85;19.79;99571.94;6580766;27;34002;-87
2022/04/06 13:11:38;;;;;;;9.48;7.30;;;;;;;31.58;19.79;99576.84;6582355;27;34306;-87
2022/04/06 13:14:41;;;;;;;9.88;6.72;;;;;;;33.15;18.20;99555.84;6591313;27;33659;-87
2022/04/06 13:17:46;;;;;;;9.77;6.22;;;;;;;34.15;17.53;99541.31;6581171;27;33939;-87
2022/04/06 13:20:49;;;;;;;6.85;6.05;;;;;;;34.46;16.64;99546.16;6591917;27;34077;-87
2022/04/06 13:23:51;;;;;;;10.90;7.95;;;;;;;35.14;16.14;99539.53;6596869;27;34206;-87
2022/04/06 13:26:54;;;;;;;9.20;7.45;;;;;;;33.85;16.45;99544.44;6594037;27;34329;-88
2022/04/06 13:30:00;;;;;;;9.43;6.82;;;;;;;33.55;16.81;99530.81;6581794;27;33798;-87
2022/04/06 13:33:03;;;;;;;9.30;6.32;;;;;;;34.38;17.90;99531.19;6578631;27;34610;-87
2022/04/06 13:36:06;;;;;;;8.05;6.22;;;;;;;34.22;16.62;99519.97;6579522;27;33922;-87
2022/04/06 13:39:09;;;;;;;10.35;6.60;;;;;;;33.99;16.65;99516.94;6579373;27;33966;-87
2022/04/06 13:42:12;;;;;;;10.63;6.93;;;;;;;35.39;16.18;99514.91;6580485;27;34164;-86
2022/04/06 13:45:15;;;;;;;10.48;6.85;;;;;;;35.20;15.26;99510.09;6580269;27;34543;-85
2022/04/06 13:48:19;;;;;;;7.00;6.10;;;;;;;34.41;16.02;99491.31;6579577;27;34646;-87
2022/04/06 13:51:23;;;;;;;6.68;5.57;;;;;;;35.48;16.15;99490.28;6582544;27;35072;-87
2022/04/06 13:54:27;;;;;;;7.53;5.70;;;;;;;34.47;16.60;99486.28;6581686;27;34261;-86
2022/04/06 13:57:30;;;;;;;8.55;5.93;;;;;;;34.18;15.76;99484.72;6582273;27;34908;-87
2022/04/06 14:00:35;;;;;;;12.40;6.97;;;;;;;34.26;16.47;99478.97;6586998;27;34093;-86
2022/04/06 14:03:39;;;;;;;11.40;6.65;;;;;;;33.71;16.16;99468.66;6591704;27;34029;-87
2022/04/06 14:06:43;;;;;;;7.75;5.72;;;;;;;34.33;16.30;99458.78;6583694;27;34467;-86
2022/04/06 14:09:46;;;;;;;8.75;5.97;;;;;;;34.16;15.52;99464.72;6581921;27;34124;-86
2022/04/06 14:12:49;;;;;;;8.60;6.72;;;;;;;32.59;16.86;99458.00;6583396;27;33930;-86
2022/04/06 14:15:55;;;;;;;11.73;7.25;;;;;;;30.84;19.68;99464.28;6582909;27;33502;-86
2022/04/06 14:18:59;;;;;;;7.40;6.60;;;;;;;30.70;20.43;99455.31;6578748;27;34824;-88
2022/04/06 14:22:02;;;;;;;8.95;6.30;;;;;;;30.54;20.35;99441.19;6577151;26;34666;-88
2022/04/06 14:33:09;;;;;;;14.50;7.75;;;;;;;29.00;21.86;99420.47;6582296;26;20080;-88
2022/04/06 14:36:12;;;;;;;11.88;8.43;;;;;;;29.27;21.78;99419.38;6561141;27;34910;-88
2022/04/06 14:39:15;;;;;;;11.50;8.75;;;;;;;28.93;21.95;99418.19;6579572;27;33819;-88
2022/04/06 14:42:18;;;;;;;13.73;8.52;;;;;;;28.01;22.83;99401.38;6580790;27;34663;-88
2022/04/06 14:45:21;;;;;;;11.50;9.15;;;;;;;27.67;24.28;99407.53;6580494;27;34662;-88
2022/04/06 14:48:25;;;;;;;11.93;8.57;;;;;;;26.41;24.08;99405.34;6581731;27;34180;-88
2022/04/06 14:51:28;;;;;;;10.93;8.52;;;;;;;26.27;24.48;99396.22;6583487;27;34098;-88
2022/04/06 14:54:31;;;;;;;10.52;7.32;;;;;;;25.35;26.79;99395.06;6571953;27;34630;-87
2022/04/06 14:57:35;;;;;;;10.55;7.68;;;;;;;24.06;27.64;99384.03;6598054;27;35346;-88
2022/04/06 15:00:39;;;;;;;13.73;8.85;;;;;;;23.24;29.79;99384.75;6588646;26;34776;-88
2022/04/06 15:03:42;;;;;;;12.57;8.40;;;;;;;22.33;29.85;99377.81;6577883;27;34118;-87
2022/04/06 15:06:45;;;;;;;12.30;8.40;;;;;;;21.99;31.37;99372.94;6574941;27;34777;-88
2022/04/06 15:09:47;;;;;;;11.40;7.72;;;;;;;21.65;32.53;99368.06;6573745;27;34035;-87
2022/04/06 15:12:51;;;;;;;9.35;6.28;;;;;;;21.39;33.53;99374.66;6577450;27;34586;-87
2022/04/06 15:15:54;;;;;;;9.30;6.40;;;;;;;21.06;30.74;99374.88;6576972;27;33534;-87
2022/04/06 15:18:57;;;;;;;8.38;6.07;;;;;;;20.76;31.33;99366.59;6607437;27;33982;-87
2022/04/06 15:22:01;;;;;;;9.23;6.50;;;;;;;20.37;32.35;99358.78;6609031;27;35283;-87
2022/04/06 15:25:06;;;;;;;8.93;6.45;;;;;;;20.22;32.74;99361.47;6607058;27;34254;-87
2022/04/06 15:28:09;;;;;;;11.77;6.75;;;;;;;19.86;34.87;99358.50;6606108;27;34156;-87
2022/04/06 15:31:12;;;;;;;11.63;7.32;;;;;;;19.79;33.74;99344.28;6606404;27;35502;-87
2022/04/06 15:37:18;;;;;;;11.95;7.00;;;;;;;19.53;34.97;99346.81;6607268;27;33950;-87
2022/04/06 15:37:37;;;;;;;14.25;7.22;;;;;;;19.60;35.50;99333.75;6609692;26;33926;-87
2022/04/06 15:40:40;;;;;;;13.70;7.45;;;;;;;19.54;35.84;99326.62;6606438;27;33952;-91
2022/04/06 15:43:43;;;;;;;13.20;7.80;;;;;;;19.54;35.22;99337.53;6606542;27;34368;-91
2022/04/06 15:46:46;;;;;;;12.57;6.57;;;;;;;19.45;36.08;99328.16;6597083;27;34184;-91
2022/04/06 15:49:53;;;;;;;8.88;6.43;;;;;;;19.49;34.66;99323.84;6607955;27;34423;-88
2022/04/06 15:52:56;;;;;;;9.52;6.00;;;;;;;19.52;34.66;99314.31;6615145;26;33589;-88
2022/04/06 15:55:59;;;;;;;10.95;6.72;;;;;;;19.52;35.40;99315.13;6606446;27;33932;-88
